Airborne Airpark
KILN : now visible

Airfield :











YOU CAN JOIN US ON...

 
LOGIN :

Register | Disclaimer

   EN    FR    IT 

 









Legend :    VFR   Marginal VFR   IFR   Intensive IFR   Very Intensive IFR
Visi :
Ceiling :
>= 8 km
>= 3000ft
5 to 8 km
1000 to 3000 ft
1500m to 5 km
500 to 1000 ft
800 to 1500m
200 to 500 ft
< 800m
< 200 ft
Symbols :   Thunderstorms  Fog  Heavy snow  Heavy precipitations  Wind > 20 kt






- Airport Elevation : 1077 ft


KILN - Airborne Airpark

CURRENT METAR :
  • 212254Z AUTO 29014G23KT 10SM CLR 14/07 A2992 RMK AO2 PK WND 29028/2210 SLP137 T01440072

EXPIRED METARs :
  • 212154Z AUTO 28016G29KT 10SM CLR 17/07 A2989 RMK AO2 PK WND 29031/2111 SLP124 T01720067
  • 212054Z AUTO 28018G31KT 10SM SCT070 19/08 A2987 RMK AO2 PK WND 30032/2008 SLP115 T01890083 55001

TAF KILN
Valid from the 22 at 00:00 until the 23 at 00:00 UTC


212322Z 2200/2224 30011KT P6SM SCT050
FM220600 29007KT P6SM BKN025
FM220900 29006KT P6SM BKN015
FM222300 24003KT P6SM BKN022
KZID FIR / North America



MET'MAP, your aeronautical weather chart ! - Copyright ORBIFLY December 2007 - Disclaimer

ORBIFLY MET'MAP TEAM :

Programming & Development : Alexandra Zaïnal
Concept & original design : Baudouin d'Aumeries
Assistance for programming : Marc-Olivier Méhu
Technical & hardware support : Manuel Goepfert

Contact : metmap@orbifly.com




SOURCES & CREDITS :

   NOAA       Earth
Advisory